sensor_id;sensor_type;location;lat;lon;timestamp;P1;durP1;ratioP1;P2;durP2;ratioP2
54125;SDS011;40360;52.992;6.796;2023-05-20T00:00:56;12.25;;;6.05;;
54125;SDS011;40360;52.992;6.796;2023-05-20T00:03:21;13.82;;;6.60;;
54125;SDS011;40360;52.992;6.796;2023-05-20T00:05:47;14.95;;;6.00;;
54125;SDS011;40360;52.992;6.796;2023-05-20T00:08:13;15.77;;;8.13;;
54125;SDS011;40360;52.992;6.796;2023-05-20T00:10:39;16.88;;;6.35;;
54125;SDS011;40360;52.992;6.796;2023-05-20T00:13:05;11.27;;;5.85;;
54125;SDS011;40360;52.992;6.796;2023-05-20T00:15:31;12.13;;;5.97;;
54125;SDS011;40360;52.992;6.796;2023-05-20T00:17:59;12.82;;;6.82;;
54125;SDS011;40360;52.992;6.796;2023-05-20T00:20:25;12.50;;;6.82;;
54125;SDS011;40360;52.992;6.796;2023-05-20T00:22:50;11.25;;;6.18;;
54125;SDS011;40360;52.992;6.796;2023-05-20T00:25:16;9.43;;;6.20;;
54125;SDS011;40360;52.992;6.796;2023-05-20T00:27:41;11.35;;;5.85;;
54125;SDS011;40360;52.992;6.796;2023-05-20T00:30:07;10.10;;;5.60;;
54125;SDS011;40360;52.992;6.796;2023-05-20T00:32:33;8.95;;;5.03;;
54125;SDS011;40360;52.992;6.796;2023-05-20T00:34:59;12.63;;;5.70;;
54125;SDS011;40360;52.992;6.796;2023-05-20T00:37:26;24.23;;;6.80;;
54125;SDS011;40360;52.992;6.796;2023-05-20T00:39:52;8.82;;;4.85;;
54125;SDS011;40360;52.992;6.796;2023-05-20T00:44:46;11.05;;;5.40;;
54125;SDS011;40360;52.992;6.796;2023-05-20T00:47:19;12.45;;;5.35;;
54125;SDS011;40360;52.992;6.796;2023-05-20T00:49:56;14.20;;;5.47;;
54125;SDS011;40360;52.992;6.796;2023-05-20T00:52:22;10.65;;;5.10;;
54125;SDS011;40360;52.992;6.796;2023-05-20T00:54:49;10.23;;;4.88;;
54125;SDS011;40360;52.992;6.796;2023-05-20T00:57:16;9.65;;;5.38;;
54125;SDS011;40360;52.992;6.796;2023-05-20T00:59:43;10.27;;;4.90;;
54125;SDS011;40360;52.992;6.796;2023-05-20T01:02:08;8.40;;;4.85;;
54125;SDS011;40360;52.992;6.796;2023-05-20T01:04:34;7.88;;;4.82;;
54125;SDS011;40360;52.992;6.796;2023-05-20T01:07:01;14.90;;;5.95;;
54125;SDS011;40360;52.992;6.796;2023-05-20T01:09:29;10.82;;;4.78;;
54125;SDS011;40360;52.992;6.796;2023-05-20T01:12:01;12.20;;;5.43;;
54125;SDS011;40360;52.992;6.796;2023-05-20T01:14:35;10.35;;;5.25;;
54125;SDS011;40360;52.992;6.796;2023-05-20T01:17:05;9.60;;;5.00;;
54125;SDS011;40360;52.992;6.796;2023-05-20T01:19:40;14.32;;;5.60;;
54125;SDS011;40360;52.992;6.796;2023-05-20T01:22:08;9.95;;;4.93;;
54125;SDS011;40360;52.992;6.796;2023-05-20T01:24:40;8.70;;;5.00;;
54125;SDS011;40360;52.992;6.796;2023-05-20T01:27:08;8.40;;;4.35;;
54125;SDS011;40360;52.992;6.796;2023-05-20T01:29:38;8.15;;;5.13;;
54125;SDS011;40360;52.992;6.796;2023-05-20T01:32:05;8.98;;;4.90;;
54125;SDS011;40360;52.992;6.796;2023-05-20T01:34:35;9.88;;;4.82;;
54125;SDS011;40360;52.992;6.796;2023-05-20T01:37:03;9.55;;;5.28;;
54125;SDS011;40360;52.992;6.796;2023-05-20T01:39:31;8.43;;;5.03;;
54125;SDS011;40360;52.992;6.796;2023-05-20T01:41:59;10.50;;;5.55;;
54125;SDS011;40360;52.992;6.796;2023-05-20T01:44:26;9.98;;;5.97;;
54125;SDS011;40360;52.992;6.796;2023-05-20T01:46:52;6.15;;;5.07;;
54125;SDS011;40360;52.992;6.796;2023-05-20T01:49:18;12.48;;;5.65;;
54125;SDS011;40360;52.992;6.796;2023-05-20T01:51:43;12.45;;;5.45;;
54125;SDS011;40360;52.992;6.796;2023-05-20T01:54:09;9.52;;;5.20;;
54125;SDS011;40360;52.992;6.796;2023-05-20T01:56:35;10.43;;;5.32;;
54125;SDS011;40360;52.992;6.796;2023-05-20T01:59:00;9.10;;;4.95;;
54125;SDS011;40360;52.992;6.796;2023-05-20T02:01:26;8.32;;;5.32;;
54125;SDS011;40360;52.992;6.796;2023-05-20T02:03:51;9.02;;;4.53;;
54125;SDS011;40360;52.992;6.796;2023-05-20T02:06:17;14.77;;;5.13;;
54125;SDS011;40360;52.992;6.796;2023-05-20T02:08:43;9.10;;;6.05;;
54125;SDS011;40360;52.992;6.796;2023-05-20T02:11:08;9.75;;;5.13;;
54125;SDS011;40360;52.992;6.796;2023-05-20T02:13:34;10.50;;;5.32;;
54125;SDS011;40360;52.992;6.796;2023-05-20T02:15:59;8.23;;;5.25;;
54125;SDS011;40360;52.992;6.796;2023-05-20T02:18:25;9.95;;;5.55;;
54125;SDS011;40360;52.992;6.796;2023-05-20T02:20:51;9.35;;;4.78;;
54125;SDS011;40360;52.992;6.796;2023-05-20T02:23:16;8.43;;;5.20;;
54125;SDS011;40360;52.992;6.796;2023-05-20T02:25:42;10.73;;;5.50;;
54125;SDS011;40360;52.992;6.796;2023-05-20T02:28:08;9.48;;;5.78;;
54125;SDS011;40360;52.992;6.796;2023-05-20T02:30:35;11.30;;;5.13;;
54125;SDS011;40360;52.992;6.796;2023-05-20T02:33:02;7.55;;;5.10;;
54125;SDS011;40360;52.992;6.796;2023-05-20T02:35:27;6.45;;;4.80;;
54125;SDS011;40360;52.992;6.796;2023-05-20T02:37:53;10.02;;;5.68;;
54125;SDS011;40360;52.992;6.796;2023-05-20T02:40:18;8.57;;;5.22;;
54125;SDS011;40360;52.992;6.796;2023-05-20T02:42:44;10.65;;;5.38;;
54125;SDS011;40360;52.992;6.796;2023-05-20T02:45:11;8.77;;;4.50;;
54125;SDS011;40360;52.992;6.796;2023-05-20T02:47:36;7.97;;;4.32;;
54125;SDS011;40360;52.992;6.796;2023-05-20T02:50:02;7.78;;;4.40;;
54125;SDS011;40360;52.992;6.796;2023-05-20T02:52:28;9.73;;;4.82;;
54125;SDS011;40360;52.992;6.796;2023-05-20T02:54:53;10.60;;;4.95;;
54125;SDS011;40360;52.992;6.796;2023-05-20T02:57:20;9.27;;;4.70;;
54125;SDS011;40360;52.992;6.796;2023-05-20T02:59:46;8.20;;;3.63;;
54125;SDS011;40360;52.992;6.796;2023-05-20T03:02:11;10.23;;;4.60;;
54125;SDS011;40360;52.992;6.796;2023-05-20T03:04:37;8.57;;;4.70;;
54125;SDS011;40360;52.992;6.796;2023-05-20T03:07:05;11.63;;;5.05;;
54125;SDS011;40360;52.992;6.796;2023-05-20T03:09:31;9.07;;;4.45;;
54125;SDS011;40360;52.992;6.796;2023-05-20T03:11:57;8.55;;;4.68;;
54125;SDS011;40360;52.992;6.796;2023-05-20T03:14:23;15.70;;;4.90;;
54125;SDS011;40360;52.992;6.796;2023-05-20T03:16:48;17.83;;;4.45;;
54125;SDS011;40360;52.992;6.796;2023-05-20T03:19:14;8.35;;;4.70;;
54125;SDS011;40360;52.992;6.796;2023-05-20T03:21:40;9.40;;;4.85;;
54125;SDS011;40360;52.992;6.796;2023-05-20T03:24:07;8.15;;;4.68;;
54125;SDS011;40360;52.992;6.796;2023-05-20T03:26:34;9.25;;;4.30;;
54125;SDS011;40360;52.992;6.796;2023-05-20T03:29:01;6.50;;;4.35;;
54125;SDS011;40360;52.992;6.796;2023-05-20T03:31:27;9.68;;;5.05;;
54125;SDS011;40360;52.992;6.796;2023-05-20T03:33:53;11.02;;;4.43;;
54125;SDS011;40360;52.992;6.796;2023-05-20T03:36:18;9.25;;;4.40;;
54125;SDS011;40360;52.992;6.796;2023-05-20T03:38:44;7.90;;;4.38;;
54125;SDS011;40360;52.992;6.796;2023-05-20T03:41:10;9.77;;;4.32;;
54125;SDS011;40360;52.992;6.796;2023-05-20T03:43:35;9.57;;;4.00;;
54125;SDS011;40360;52.992;6.796;2023-05-20T03:46:01;10.77;;;3.70;;
54125;SDS011;40360;52.992;6.796;2023-05-20T03:48:27;13.65;;;4.20;;
54125;SDS011;40360;52.992;6.796;2023-05-20T03:50:52;9.00;;;4.43;;
54125;SDS011;40360;52.992;6.796;2023-05-20T03:53:18;19.40;;;4.10;;
54125;SDS011;40360;52.992;6.796;2023-05-20T03:55:44;9.10;;;4.22;;
54125;SDS011;40360;52.992;6.796;2023-05-20T03:58:10;9.07;;;4.25;;
54125;SDS011;40360;52.992;6.796;2023-05-20T04:00:37;9.27;;;4.25;;
54125;SDS011;40360;52.992;6.796;2023-05-20T04:03:03;8.32;;;4.45;;
54125;SDS011;40360;52.992;6.796;2023-05-20T04:05:29;6.43;;;3.20;;
54125;SDS011;40360;52.992;6.796;2023-05-20T04:07:55;5.07;;;3.45;;
54125;SDS011;40360;52.992;6.796;2023-05-20T04:10:21;5.93;;;3.38;;
54125;SDS011;40360;52.992;6.796;2023-05-20T04:12:47;7.63;;;3.60;;
54125;SDS011;40360;52.992;6.796;2023-05-20T04:15:13;5.03;;;3.03;;
54125;SDS011;40360;52.992;6.796;2023-05-20T04:17:38;6.97;;;3.72;;
54125;SDS011;40360;52.992;6.796;2023-05-20T04:20:05;3.90;;;3.00;;
54125;SDS011;40360;52.992;6.796;2023-05-20T04:22:31;5.72;;;3.35;;
54125;SDS011;40360;52.992;6.796;2023-05-20T04:24:58;3.55;;;2.75;;
54125;SDS011;40360;52.992;6.796;2023-05-20T04:27:24;4.13;;;2.72;;
54125;SDS011;40360;52.992;6.796;2023-05-20T04:29:50;5.32;;;2.65;;
54125;SDS011;40360;52.992;6.796;2023-05-20T04:32:17;4.70;;;3.00;;
54125;SDS011;40360;52.992;6.796;2023-05-20T04:34:43;3.40;;;2.53;;
54125;SDS011;40360;52.992;6.796;2023-05-20T04:37:09;4.43;;;2.38;;
54125;SDS011;40360;52.992;6.796;2023-05-20T04:39:36;3.78;;;2.90;;
54125;SDS011;40360;52.992;6.796;2023-05-20T04:42:02;5.95;;;2.30;;
54125;SDS011;40360;52.992;6.796;2023-05-20T04:44:28;9.18;;;3.20;;
54125;SDS011;40360;52.992;6.796;2023-05-20T04:46:54;6.63;;;2.63;;
54125;SDS011;40360;52.992;6.796;2023-05-20T04:49:22;6.28;;;2.80;;
54125;SDS011;40360;52.992;6.796;2023-05-20T04:51:50;6.45;;;2.72;;
54125;SDS011;40360;52.992;6.796;2023-05-20T04:54:16;7.03;;;2.80;;
54125;SDS011;40360;52.992;6.796;2023-05-20T04:56:44;3.75;;;2.35;;
54125;SDS011;40360;52.992;6.796;2023-05-20T04:59:11;3.55;;;2.03;;
54125;SDS011;40360;52.992;6.796;2023-05-20T05:01:36;5.68;;;2.25;;
54125;SDS011;40360;52.992;6.796;2023-05-20T05:04:02;4.93;;;2.22;;
54125;SDS011;40360;52.992;6.796;2023-05-20T05:06:28;4.55;;;2.30;;
54125;SDS011;40360;52.992;6.796;2023-05-20T05:08:54;4.85;;;2.28;;
54125;SDS011;40360;52.992;6.796;2023-05-20T05:11:19;5.43;;;2.08;;
54125;SDS011;40360;52.992;6.796;2023-05-20T05:13:45;3.83;;;1.88;;
54125;SDS011;40360;52.992;6.796;2023-05-20T05:16:11;3.17;;;1.80;;
54125;SDS011;40360;52.992;6.796;2023-05-20T05:18:36;3.88;;;2.03;;
54125;SDS011;40360;52.992;6.796;2023-05-20T05:21:02;3.15;;;1.77;;
54125;SDS011;40360;52.992;6.796;2023-05-20T05:23:29;4.30;;;1.83;;
54125;SDS011;40360;52.992;6.796;2023-05-20T05:25:55;4.20;;;2.75;;
54125;SDS011;40360;52.992;6.796;2023-05-20T05:28:21;3.70;;;1.70;;
54125;SDS011;40360;52.992;6.796;2023-05-20T05:30:47;3.80;;;1.80;;
54125;SDS011;40360;52.992;6.796;2023-05-20T05:33:13;4.95;;;2.25;;
54125;SDS011;40360;52.992;6.796;2023-05-20T05:35:40;2.85;;;1.50;;
54125;SDS011;40360;52.992;6.796;2023-05-20T05:38:07;3.88;;;1.83;;
54125;SDS011;40360;52.992;6.796;2023-05-20T05:40:33;3.53;;;2.28;;
54125;SDS011;40360;52.992;6.796;2023-05-20T05:42:59;4.75;;;1.80;;
54125;SDS011;40360;52.992;6.796;2023-05-20T06:01:47;4.03;;;1.60;;
54125;SDS011;40360;52.992;6.796;2023-05-20T06:04:13;3.65;;;1.80;;
54125;SDS011;40360;52.992;6.796;2023-05-20T06:06:39;7.32;;;2.10;;
54125;SDS011;40360;52.992;6.796;2023-05-20T06:09:05;2.63;;;1.63;;
54125;SDS011;40360;52.992;6.796;2023-05-20T06:11:30;3.92;;;2.03;;
54125;SDS011;40360;52.992;6.796;2023-05-20T06:13:56;4.10;;;1.50;;
54125;SDS011;40360;52.992;6.796;2023-05-20T06:16:22;2.53;;;1.60;;
54125;SDS011;40360;52.992;6.796;2023-05-20T06:18:48;3.13;;;1.38;;
54125;SDS011;40360;52.992;6.796;2023-05-20T06:21:19;4.30;;;1.98;;
54125;SDS011;40360;52.992;6.796;2023-05-20T06:23:45;3.75;;;1.92;;
54125;SDS011;40360;52.992;6.796;2023-05-20T06:26:11;4.95;;;2.05;;
54125;SDS011;40360;52.992;6.796;2023-05-20T06:28:37;3.45;;;1.80;;
54125;SDS011;40360;52.992;6.796;2023-05-20T06:31:03;3.30;;;1.70;;
54125;SDS011;40360;52.992;6.796;2023-05-20T06:33:30;2.60;;;1.52;;
54125;SDS011;40360;52.992;6.796;2023-05-20T06:35:58;2.55;;;1.65;;
54125;SDS011;40360;52.992;6.796;2023-05-20T06:38:25;6.18;;;2.53;;
54125;SDS011;40360;52.992;6.796;2023-05-20T06:40:51;2.92;;;1.70;;
54125;SDS011;40360;52.992;6.796;2023-05-20T06:43:17;2.45;;;1.58;;
54125;SDS011;40360;52.992;6.796;2023-05-20T06:45:43;5.22;;;1.73;;
54125;SDS011;40360;52.992;6.796;2023-05-20T06:48:09;2.78;;;1.80;;
54125;SDS011;40360;52.992;6.796;2023-05-20T06:50:35;4.45;;;1.80;;
54125;SDS011;40360;52.992;6.796;2023-05-20T06:53:00;3.30;;;1.52;;
54125;SDS011;40360;52.992;6.796;2023-05-20T06:55:26;6.88;;;2.38;;
54125;SDS011;40360;52.992;6.796;2023-05-20T06:57:52;4.00;;;2.13;;
54125;SDS011;40360;52.992;6.796;2023-05-20T07:00:18;3.38;;;1.95;;
54125;SDS011;40360;52.992;6.796;2023-05-20T07:02:44;3.15;;;1.70;;
54125;SDS011;40360;52.992;6.796;2023-05-20T07:05:10;4.15;;;2.00;;
54125;SDS011;40360;52.992;6.796;2023-05-20T07:07:36;5.72;;;2.17;;
54125;SDS011;40360;52.992;6.796;2023-05-20T07:10:02;4.80;;;1.80;;
54125;SDS011;40360;52.992;6.796;2023-05-20T07:12:30;4.13;;;2.20;;
54125;SDS011;40360;52.992;6.796;2023-05-20T07:14:58;4.07;;;2.00;;
54125;SDS011;40360;52.992;6.796;2023-05-20T07:17:25;2.65;;;2.10;;
54125;SDS011;40360;52.992;6.796;2023-05-20T07:19:51;4.88;;;2.20;;
54125;SDS011;40360;52.992;6.796;2023-05-20T07:22:17;2.88;;;1.80;;
54125;SDS011;40360;52.992;6.796;2023-05-20T07:24:43;6.97;;;2.47;;
54125;SDS011;40360;52.992;6.796;2023-05-20T07:27:10;2.38;;;1.75;;
54125;SDS011;40360;52.992;6.796;2023-05-20T07:29:36;6.35;;;2.03;;
54125;SDS011;40360;52.992;6.796;2023-05-20T07:32:02;3.25;;;2.13;;
54125;SDS011;40360;52.992;6.796;2023-05-20T07:34:29;3.72;;;1.85;;
54125;SDS011;40360;52.992;6.796;2023-05-20T07:36:55;2.35;;;1.98;;
54125;SDS011;40360;52.992;6.796;2023-05-20T07:39:21;5.25;;;2.15;;
54125;SDS011;40360;52.992;6.796;2023-05-20T07:41:47;3.90;;;2.05;;
54125;SDS011;40360;52.992;6.796;2023-05-20T07:44:13;4.32;;;2.45;;
54125;SDS011;40360;52.992;6.796;2023-05-20T07:46:39;2.80;;;1.92;;
54125;SDS011;40360;52.992;6.796;2023-05-20T07:49:08;3.17;;;2.20;;
54125;SDS011;40360;52.992;6.796;2023-05-20T07:51:34;3.22;;;1.90;;
54125;SDS011;40360;52.992;6.796;2023-05-20T07:53:59;3.25;;;1.90;;
54125;SDS011;40360;52.992;6.796;2023-05-20T07:56:25;4.20;;;2.53;;
54125;SDS011;40360;52.992;6.796;2023-05-20T07:58:54;3.83;;;2.45;;
54125;SDS011;40360;52.992;6.796;2023-05-20T08:01:22;4.55;;;2.15;;
54125;SDS011;40360;52.992;6.796;2023-05-20T08:03:49;5.35;;;1.83;;
54125;SDS011;40360;52.992;6.796;2023-05-20T08:06:14;3.42;;;1.92;;
54125;SDS011;40360;52.992;6.796;2023-05-20T08:08:41;3.80;;;2.25;;
54125;SDS011;40360;52.992;6.796;2023-05-20T08:11:07;6.10;;;2.50;;
54125;SDS011;40360;52.992;6.796;2023-05-20T08:13:33;5.30;;;2.35;;
54125;SDS011;40360;52.992;6.796;2023-05-20T08:15:59;5.60;;;2.08;;
54125;SDS011;40360;52.992;6.796;2023-05-20T08:18:25;4.53;;;2.13;;
54125;SDS011;40360;52.992;6.796;2023-05-20T08:20:54;3.63;;;2.08;;
54125;SDS011;40360;52.992;6.796;2023-05-20T08:23:19;3.80;;;2.15;;
54125;SDS011;40360;52.992;6.796;2023-05-20T08:25:45;4.30;;;2.08;;
54125;SDS011;40360;52.992;6.796;2023-05-20T08:28:12;4.18;;;2.33;;
54125;SDS011;40360;52.992;6.796;2023-05-20T08:30:37;4.43;;;2.67;;
54125;SDS011;40360;52.992;6.796;2023-05-20T08:33:03;4.55;;;2.80;;
54125;SDS011;40360;52.992;6.796;2023-05-20T08:35:29;4.50;;;2.63;;
54125;SDS011;40360;52.992;6.796;2023-05-20T08:37:54;3.30;;;2.40;;
54125;SDS011;40360;52.992;6.796;2023-05-20T08:40:20;6.07;;;2.50;;
54125;SDS011;40360;52.992;6.796;2023-05-20T08:42:49;4.50;;;2.05;;
54125;SDS011;40360;52.992;6.796;2023-05-20T08:45:18;5.20;;;2.95;;
54125;SDS011;40360;52.992;6.796;2023-05-20T08:47:48;4.25;;;2.40;;
54125;SDS011;40360;52.992;6.796;2023-05-20T08:50:14;6.32;;;2.78;;
54125;SDS011;40360;52.992;6.796;2023-05-20T08:52:44;3.67;;;2.63;;
54125;SDS011;40360;52.992;6.796;2023-05-20T08:55:14;3.70;;;2.70;;
54125;SDS011;40360;52.992;6.796;2023-05-20T08:57:48;3.38;;;2.50;;
54125;SDS011;40360;52.992;6.796;2023-05-20T09:00:15;2.50;;;2.30;;
54125;SDS011;40360;52.992;6.796;2023-05-20T09:02:43;5.65;;;2.78;;
54125;SDS011;40360;52.992;6.796;2023-05-20T09:05:11;4.30;;;2.58;;
54125;SDS011;40360;52.992;6.796;2023-05-20T09:07:37;4.05;;;3.05;;
54125;SDS011;40360;52.992;6.796;2023-05-20T09:10:03;5.03;;;2.72;;
54125;SDS011;40360;52.992;6.796;2023-05-20T09:12:29;3.35;;;2.83;;
54125;SDS011;40360;52.992;6.796;2023-05-20T09:14:55;4.78;;;2.92;;
54125;SDS011;40360;52.992;6.796;2023-05-20T09:17:22;4.07;;;2.92;;
54125;SDS011;40360;52.992;6.796;2023-05-20T09:19:51;6.82;;;2.80;;
54125;SDS011;40360;52.992;6.796;2023-05-20T09:22:24;5.75;;;2.95;;
54125;SDS011;40360;52.992;6.796;2023-05-20T09:24:51;4.28;;;2.60;;
54125;SDS011;40360;52.992;6.796;2023-05-20T09:27:17;4.82;;;2.53;;
54125;SDS011;40360;52.992;6.796;2023-05-20T09:29:49;4.28;;;2.53;;
54125;SDS011;40360;52.992;6.796;2023-05-20T09:32:15;4.18;;;2.30;;
54125;SDS011;40360;52.992;6.796;2023-05-20T09:34:44;7.80;;;2.95;;
54125;SDS011;40360;52.992;6.796;2023-05-20T09:37:11;6.05;;;2.50;;
54125;SDS011;40360;52.992;6.796;2023-05-20T09:39:57;6.30;;;2.50;;
54125;SDS011;40360;52.992;6.796;2023-05-20T09:42:25;3.55;;;2.15;;
54125;SDS011;40360;52.992;6.796;2023-05-20T09:45:03;4.90;;;2.15;;
54125;SDS011;40360;52.992;6.796;2023-05-20T09:47:33;3.88;;;2.08;;
54125;SDS011;40360;52.992;6.796;2023-05-20T09:50:00;4.32;;;2.45;;
54125;SDS011;40360;52.992;6.796;2023-05-20T09:52:28;4.47;;;2.30;;
54125;SDS011;40360;52.992;6.796;2023-05-20T09:54:54;8.43;;;3.08;;
54125;SDS011;40360;52.992;6.796;2023-05-20T09:57:21;9.07;;;2.50;;
54125;SDS011;40360;52.992;6.796;2023-05-20T09:59:47;4.20;;;2.55;;
54125;SDS011;40360;52.992;6.796;2023-05-20T10:02:15;6.18;;;2.60;;
54125;SDS011;40360;52.992;6.796;2023-05-20T10:04:42;5.60;;;2.30;;
54125;SDS011;40360;52.992;6.796;2023-05-20T10:10:19;4.97;;;2.55;;
54125;SDS011;40360;52.992;6.796;2023-05-20T10:15:38;4.47;;;2.70;;
54125;SDS011;40360;52.992;6.796;2023-05-20T10:18:28;6.20;;;2.80;;
54125;SDS011;40360;52.992;6.796;2023-05-20T10:21:19;3.80;;;2.47;;
54125;SDS011;40360;52.992;6.796;2023-05-20T10:23:48;6.25;;;2.38;;
54125;SDS011;40360;52.992;6.796;2023-05-20T10:26:15;5.80;;;2.60;;
54125;SDS011;40360;52.992;6.796;2023-05-20T10:28:41;5.53;;;2.50;;
54125;SDS011;40360;52.992;6.796;2023-05-20T10:31:17;4.57;;;2.25;;
54125;SDS011;40360;52.992;6.796;2023-05-20T10:33:46;3.80;;;2.47;;
54125;SDS011;40360;52.992;6.796;2023-05-20T10:36:22;5.25;;;1.98;;
54125;SDS011;40360;52.992;6.796;2023-05-20T10:38:54;5.45;;;2.10;;
54125;SDS011;40360;52.992;6.796;2023-05-20T10:41:23;3.53;;;2.22;;
54125;SDS011;40360;52.992;6.796;2023-05-20T10:44:02;5.78;;;2.55;;
54125;SDS011;40360;52.992;6.796;2023-05-20T10:46:30;5.50;;;2.40;;
54125;SDS011;40360;52.992;6.796;2023-05-20T10:48:56;3.42;;;2.47;;
54125;SDS011;40360;52.992;6.796;2023-05-20T10:51:22;5.50;;;2.33;;
54125;SDS011;40360;52.992;6.796;2023-05-20T10:53:51;5.70;;;2.20;;
54125;SDS011;40360;52.992;6.796;2023-05-20T10:56:19;3.92;;;2.10;;
54125;SDS011;40360;52.992;6.796;2023-05-20T10:58:46;6.30;;;2.85;;
54125;SDS011;40360;52.992;6.796;2023-05-20T11:01:12;3.90;;;2.30;;
54125;SDS011;40360;52.992;6.796;2023-05-20T11:03:39;3.38;;;2.78;;
54125;SDS011;40360;52.992;6.796;2023-05-20T11:06:15;3.83;;;2.30;;
54125;SDS011;40360;52.992;6.796;2023-05-20T11:08:42;3.45;;;1.80;;
54125;SDS011;40360;52.992;6.796;2023-05-20T11:11:12;5.78;;;1.88;;
54125;SDS011;40360;52.992;6.796;2023-05-20T11:13:39;5.18;;;1.90;;
54125;SDS011;40360;52.992;6.796;2023-05-20T11:16:05;2.95;;;1.90;;
54125;SDS011;40360;52.992;6.796;2023-05-20T11:18:30;6.05;;;2.63;;
54125;SDS011;40360;52.992;6.796;2023-05-20T11:20:57;6.55;;;2.17;;
54125;SDS011;40360;52.992;6.796;2023-05-20T11:23:24;7.03;;;2.38;;
54125;SDS011;40360;52.992;6.796;2023-05-20T11:25:51;5.28;;;2.10;;
54125;SDS011;40360;52.992;6.796;2023-05-20T11:28:18;3.40;;;2.30;;
54125;SDS011;40360;52.992;6.796;2023-05-20T11:30:45;4.43;;;2.00;;
54125;SDS011;40360;52.992;6.796;2023-05-20T11:33:12;5.95;;;3.20;;
54125;SDS011;40360;52.992;6.796;2023-05-20T11:35:46;7.72;;;2.30;;
54125;SDS011;40360;52.992;6.796;2023-05-20T11:38:14;3.92;;;2.13;;
54125;SDS011;40360;52.992;6.796;2023-05-20T11:40:44;3.95;;;1.98;;
54125;SDS011;40360;52.992;6.796;2023-05-20T11:43:11;5.53;;;2.30;;
54125;SDS011;40360;52.992;6.796;2023-05-20T11:45:41;5.68;;;2.97;;
54125;SDS011;40360;52.992;6.796;2023-05-20T11:48:10;5.40;;;2.30;;
54125;SDS011;40360;52.992;6.796;2023-05-20T11:50:38;2.60;;;2.03;;
54125;SDS011;40360;52.992;6.796;2023-05-20T11:53:18;4.60;;;2.08;;
54125;SDS011;40360;52.992;6.796;2023-05-20T11:55:46;3.70;;;2.00;;
54125;SDS011;40360;52.992;6.796;2023-05-20T11:58:22;4.13;;;1.90;;
54125;SDS011;40360;52.992;6.796;2023-05-20T12:00:53;2.92;;;2.25;;
54125;SDS011;40360;52.992;6.796;2023-05-20T12:03:18;2.95;;;2.05;;
54125;SDS011;40360;52.992;6.796;2023-05-20T12:05:44;5.07;;;2.30;;
54125;SDS011;40360;52.992;6.796;2023-05-20T12:08:12;6.75;;;2.33;;
54125;SDS011;40360;52.992;6.796;2023-05-20T12:10:39;4.50;;;1.90;;
54125;SDS011;40360;52.992;6.796;2023-05-20T12:13:05;4.28;;;2.15;;
54125;SDS011;40360;52.992;6.796;2023-05-20T12:15:37;5.32;;;2.42;;
54125;SDS011;40360;52.992;6.796;2023-05-20T12:18:03;4.03;;;2.40;;
54125;SDS011;40360;52.992;6.796;2023-05-20T12:20:29;4.82;;;2.30;;
54125;SDS011;40360;52.992;6.796;2023-05-20T12:22:57;5.03;;;2.38;;
54125;SDS011;40360;52.992;6.796;2023-05-20T12:25:24;5.13;;;2.10;;
54125;SDS011;40360;52.992;6.796;2023-05-20T12:27:50;5.40;;;2.17;;
54125;SDS011;40360;52.992;6.796;2023-05-20T12:30:17;4.22;;;2.33;;
54125;SDS011;40360;52.992;6.796;2023-05-20T12:32:45;3.97;;;2.22;;
54125;SDS011;40360;52.992;6.796;2023-05-20T12:35:12;7.72;;;2.35;;
54125;SDS011;40360;52.992;6.796;2023-05-20T12:37:38;4.95;;;2.67;;
54125;SDS011;40360;52.992;6.796;2023-05-20T12:40:05;5.05;;;2.10;;
54125;SDS011;40360;52.992;6.796;2023-05-20T12:42:35;4.85;;;2.17;;
54125;SDS011;40360;52.992;6.796;2023-05-20T12:45:02;4.75;;;2.15;;
54125;SDS011;40360;52.992;6.796;2023-05-20T12:47:28;3.92;;;2.20;;
54125;SDS011;40360;52.992;6.796;2023-05-20T12:49:54;4.15;;;2.38;;
54125;SDS011;40360;52.992;6.796;2023-05-20T12:52:20;3.85;;;1.90;;
54125;SDS011;40360;52.992;6.796;2023-05-20T12:54:45;3.20;;;2.17;;
54125;SDS011;40360;52.992;6.796;2023-05-20T12:57:11;5.35;;;2.08;;
54125;SDS011;40360;52.992;6.796;2023-05-20T12:59:37;3.40;;;2.05;;
54125;SDS011;40360;52.992;6.796;2023-05-20T13:02:02;3.80;;;2.38;;
54125;SDS011;40360;52.992;6.796;2023-05-20T13:04:28;3.90;;;1.80;;
54125;SDS011;40360;52.992;6.796;2023-05-20T13:06:54;3.38;;;1.80;;
54125;SDS011;40360;52.992;6.796;2023-05-20T13:09:19;4.57;;;2.08;;
54125;SDS011;40360;52.992;6.796;2023-05-20T13:11:45;4.15;;;2.08;;
54125;SDS011;40360;52.992;6.796;2023-05-20T13:14:11;6.70;;;2.20;;
54125;SDS011;40360;52.992;6.796;2023-05-20T13:16:37;5.80;;;2.42;;
54125;SDS011;40360;52.992;6.796;2023-05-20T13:19:02;3.40;;;1.73;;
54125;SDS011;40360;52.992;6.796;2023-05-20T13:21:28;4.50;;;2.15;;
54125;SDS011;40360;52.992;6.796;2023-05-20T13:23:54;4.13;;;1.75;;
54125;SDS011;40360;52.992;6.796;2023-05-20T13:26:19;2.88;;;1.88;;
54125;SDS011;40360;52.992;6.796;2023-05-20T13:28:45;3.42;;;1.88;;
54125;SDS011;40360;52.992;6.796;2023-05-20T13:31:11;4.50;;;1.77;;
54125;SDS011;40360;52.992;6.796;2023-05-20T13:33:37;3.67;;;1.90;;
54125;SDS011;40360;52.992;6.796;2023-05-20T13:36:02;7.57;;;1.70;;
54125;SDS011;40360;52.992;6.796;2023-05-20T13:38:28;6.13;;;2.10;;
54125;SDS011;40360;52.992;6.796;2023-05-20T13:40:54;4.60;;;1.85;;
54125;SDS011;40360;52.992;6.796;2023-05-20T13:43:23;5.22;;;2.30;;
54125;SDS011;40360;52.992;6.796;2023-05-20T13:45:50;6.80;;;2.17;;
54125;SDS011;40360;52.992;6.796;2023-05-20T13:48:15;4.38;;;2.10;;
54125;SDS011;40360;52.992;6.796;2023-05-20T13:50:41;5.63;;;1.98;;
54125;SDS011;40360;52.992;6.796;2023-05-20T13:53:07;3.38;;;2.10;;
54125;SDS011;40360;52.992;6.796;2023-05-20T13:55:36;3.58;;;2.03;;
54125;SDS011;40360;52.992;6.796;2023-05-20T13:58:02;4.55;;;2.35;;
54125;SDS011;40360;52.992;6.796;2023-05-20T14:00:29;3.90;;;2.08;;
54125;SDS011;40360;52.992;6.796;2023-05-20T14:02:56;4.72;;;2.20;;
54125;SDS011;40360;52.992;6.796;2023-05-20T14:05:21;6.40;;;2.03;;
54125;SDS011;40360;52.992;6.796;2023-05-20T14:07:47;5.53;;;2.33;;
54125;SDS011;40360;52.992;6.796;2023-05-20T14:10:13;6.00;;;2.70;;
54125;SDS011;40360;52.992;6.796;2023-05-20T14:12:38;3.63;;;2.05;;
54125;SDS011;40360;52.992;6.796;2023-05-20T14:15:05;3.17;;;1.70;;
54125;SDS011;40360;52.992;6.796;2023-05-20T14:17:31;4.30;;;2.10;;
54125;SDS011;40360;52.992;6.796;2023-05-20T14:19:56;3.80;;;2.10;;
54125;SDS011;40360;52.992;6.796;2023-05-20T14:22:22;3.35;;;2.45;;
54125;SDS011;40360;52.992;6.796;2023-05-20T14:24:47;4.30;;;2.38;;
54125;SDS011;40360;52.992;6.796;2023-05-20T14:27:13;4.05;;;2.63;;
54125;SDS011;40360;52.992;6.796;2023-05-20T14:29:39;7.75;;;2.53;;
54125;SDS011;40360;52.992;6.796;2023-05-20T14:32:04;5.40;;;2.55;;
54125;SDS011;40360;52.992;6.796;2023-05-20T14:34:30;4.28;;;2.42;;
54125;SDS011;40360;52.992;6.796;2023-05-20T14:36:56;5.60;;;2.38;;
54125;SDS011;40360;52.992;6.796;2023-05-20T14:39:22;2.95;;;2.42;;
54125;SDS011;40360;52.992;6.796;2023-05-20T14:41:47;4.75;;;2.15;;
54125;SDS011;40360;52.992;6.796;2023-05-20T14:44:13;4.93;;;2.30;;
54125;SDS011;40360;52.992;6.796;2023-05-20T14:46:38;2.80;;;1.98;;
54125;SDS011;40360;52.992;6.796;2023-05-20T14:49:04;5.82;;;2.22;;
54125;SDS011;40360;52.992;6.796;2023-05-20T14:51:30;3.17;;;2.03;;
54125;SDS011;40360;52.992;6.796;2023-05-20T14:53:55;3.45;;;1.98;;
54125;SDS011;40360;52.992;6.796;2023-05-20T14:56:21;4.57;;;2.10;;
54125;SDS011;40360;52.992;6.796;2023-05-20T14:58:47;6.03;;;2.20;;
54125;SDS011;40360;52.992;6.796;2023-05-20T15:01:12;5.22;;;1.85;;
54125;SDS011;40360;52.992;6.796;2023-05-20T15:03:38;4.68;;;2.03;;
54125;SDS011;40360;52.992;6.796;2023-05-20T15:06:04;4.82;;;1.90;;
54125;SDS011;40360;52.992;6.796;2023-05-20T15:08:30;3.55;;;2.00;;